Main page
METAR-TAF:

METAR-TAF

Airports :

Guernsey,

Guernsey Airport

latitude: 49-26N, longitude: 002-36W, elevation: 102 m

Current weather observation

The report was made 4 hours and 51 minutes ago, at 21:20 UTC
Wind 14 kt from the West
Temperature 14°C
Humidity 94%
Pressure 998 hPa
Visibility 10 km or more
Few clouds at a height of 400 ft
Scattered clouds at a height of 1000 ft
Broken clouds at a height of 3000 ft

METAR: EGJB 282120Z 27014KT 9999 FEW004 SCT010 BKN030 14/13 Q0998

Time: 03:11 (02:11 UTC)

Forecast

The report was made 3 hours and 13 minutes ago, at 22:58 UTC
Forecast valid from 29 at 00 UTC to 29 at 09 UTC
Wind 15 kt from the West/Northwest
Visibility 10 km or more
Few clouds at a height of 600 ft
Broken clouds at a height of 1500 ft
Temporary
from 29 at 00 UTC to 29 at 09 UTC
Visibility: 6000 m
Broken clouds at a height of 400 ft
light rain

TAF: EGJB 282258Z 2900/2909 29015KT 9999 FEW006 BKN015 TEMPO 2900/2909 6000 -RA BKN004

Weather observations and forecasts of more than 4000 airports (METAR and TAF reports).

The available stations are represented by yellow and red dots on the map.

Hover mouse over dot to see the name of the station.

Then click to see weather observations and forecasts.

To change the map : click on the green buttons with a black cross to zoom in, on the green button with a dash to zoom out, or on the green arrows for adjacent maps.


METAR-TAF: